Time;durP1;ratioP1;P1;durP2;ratioP2;P2;SDS_P1;SDS_P2;PMS_P1;PMS_P2;Temp;Humidity;BMP_temperature;BMP_pressure;BME280_temperature;BME280_humidity;BME280_pressure;Samples;Min_cycle;Max_cycle;Signal;HPM_P1;HPM_P2
2021/09/13 00:01:39;;;;;;;9.40;8.60;;;19.90;99.90;;;;;;5054297;28;20463;-63
2021/09/13 00:04:06;;;;;;;9.20;8.40;;;19.90;99.90;;;;;;5058740;28;20475;-62
2021/09/13 00:06:34;;;;;;;10.00;8.73;;;19.90;99.90;;;;;;5068807;28;20470;-62
2021/09/13 00:09:01;;;;;;;9.60;8.80;;;19.80;99.90;;;;;;5055209;28;20844;-62
2021/09/13 00:11:28;;;;;;;9.90;9.10;;;19.80;99.90;;;;;;5054304;28;20534;-62
2021/09/13 00:13:55;;;;;;;9.57;8.70;;;19.80;99.90;;;;;;5059400;28;20473;-62
2021/09/13 00:16:22;;;;;;;10.40;9.60;;;19.80;99.90;;;;;;5073524;28;20466;-62
2021/09/13 00:18:48;;;;;;;9.73;8.90;;;19.70;99.90;;;;;;5066872;28;20813;-62
2021/09/13 00:21:15;;;;;;;10.03;9.20;;;19.70;99.90;;;;;;5064521;28;20450;-62
2021/09/13 00:23:43;;;;;;;10.80;9.80;;;19.70;99.90;;;;;;5053381;28;20477;-62
2021/09/13 00:26:10;;;;;;;10.27;9.23;;;19.70;99.90;;;;;;5054722;28;20463;-62
2021/09/13 00:28:37;;;;;;;8.60;7.90;;;19.70;99.90;;;;;;5069354;28;20816;-62
2021/09/13 00:31:04;;;;;;;10.17;9.23;;;19.70;99.90;;;;;;5071395;28;20463;-62
2021/09/13 00:33:31;;;;;;;8.40;7.60;;;19.70;99.90;;;;;;5053962;28;20473;-63
2021/09/13 00:35:58;;;;;;;11.57;10.57;;;19.60;99.90;;;;;;5056325;28;20462;-63
2021/09/13 00:38:25;;;;;;;10.03;9.23;;;19.60;99.90;;;;;;5064956;28;20459;-63
2021/09/13 00:40:53;;;;;;;8.33;7.60;;;19.60;99.90;;;;;;5062948;28;20470;-63
2021/09/13 00:43:20;;;;;;;8.70;7.90;;;19.60;99.90;;;;;;5053318;28;21253;-62
2021/09/13 00:45:46;;;;;;;10.60;9.60;;;19.60;99.90;;;;;;5066983;28;20462;-63
2021/09/13 00:48:13;;;;;;;8.87;8.10;;;19.60;99.90;;;;;;5053032;28;20535;-63
2021/09/13 00:50:40;;;;;;;9.27;8.57;;;19.60;99.90;;;;;;5066527;28;20470;-61
2021/09/13 00:53:07;;;;;;;9.27;8.33;;;19.50;99.90;;;;;;5054185;28;20467;-61
2021/09/13 00:55:34;;;;;;;8.17;7.57;;;19.50;99.90;;;;;;5058313;28;20798;-61
2021/09/13 00:58:02;;;;;;;9.27;8.33;;;19.50;99.90;;;;;;5062494;28;20480;-61
2021/09/13 01:00:29;;;;;;;8.73;8.03;;;19.50;99.90;;;;;;5056741;28;21095;-61
2021/09/13 01:02:56;;;;;;;8.60;7.80;;;19.50;99.90;;;;;;5052864;28;20809;-61
2021/09/13 01:05:23;;;;;;;61.20;54.00;;;19.50;99.90;;;;;;5066536;28;20463;-61
2021/09/13 01:07:51;;;;;;;25.27;22.73;;;19.40;99.90;;;;;;5063684;28;20462;-61
2021/09/13 01:10:19;;;;;;;18.57;16.77;;;19.40;99.90;;;;;;5054835;28;20547;-62
2021/09/13 01:12:45;;;;;;;12.67;11.57;;;19.40;99.90;;;;;;5052414;28;20467;-62
2021/09/13 01:15:14;;;;;;;11.90;10.73;;;19.40;99.90;;;;;;5065725;28;20809;-62
2021/09/13 01:17:41;;;;;;;9.97;9.10;;;19.40;99.90;;;;;;5060669;28;20465;-61
2021/09/13 01:20:09;;;;;;;9.40;8.70;;;19.30;99.90;;;;;;5052488;28;20486;-61
2021/09/13 01:22:37;;;;;;;9.53;8.70;;;19.30;99.90;;;;;;5064973;28;20782;-61
2021/09/13 01:25:06;;;;;;;8.43;7.77;;;19.30;99.90;;;;;;5053404;28;20477;-62
2021/09/13 01:27:33;;;;;;;9.50;8.60;;;19.30;99.90;;;;;;5056683;28;20466;-61
2021/09/13 01:30:00;;;;;;;9.00;8.23;;;19.30;99.90;;;;;;5058155;28;20470;-61
2021/09/13 01:32:27;;;;;;;9.70;8.90;;;19.30;99.90;;;;;;5059373;28;20979;-62
2021/09/13 01:34:53;;;;;;;9.40;8.33;;;19.20;99.90;;;;;;5051898;28;20482;-62
2021/09/13 01:37:20;;;;;;;9.70;8.80;;;19.20;99.90;;;;;;5058378;28;20465;-61
2021/09/13 01:39:47;;;;;;;9.43;8.73;;;19.20;99.90;;;;;;5057189;28;20474;-61
2021/09/13 01:42:15;;;;;;;8.57;7.93;;;19.20;99.90;;;;;;5051775;28;20475;-61
2021/09/13 01:44:42;;;;;;;11.03;9.97;;;19.20;99.90;;;;;;5052569;28;20485;-62
2021/09/13 01:47:09;;;;;;;10.17;9.27;;;19.20;99.90;;;;;;5051875;28;20471;-61
2021/09/13 01:49:36;;;;;;;9.00;8.30;;;19.20;99.90;;;;;;5060251;28;20472;-61
2021/09/13 01:52:03;;;;;;;9.57;8.67;;;19.10;99.90;;;;;;5057443;28;20829;-61
2021/09/13 01:54:30;;;;;;;9.37;8.57;;;19.10;99.90;;;;;;5057181;28;20459;-62
2021/09/13 01:56:57;;;;;;;8.77;8.07;;;19.10;99.90;;;;;;5053355;28;20463;-62
2021/09/13 01:59:25;;;;;;;9.40;8.50;;;19.00;99.90;;;;;;5064228;28;20894;-62
2021/09/13 02:01:52;;;;;;;9.83;8.07;;;19.00;99.90;;;;;;5052600;28;20473;-62
2021/09/13 02:04:18;;;;;;;9.13;8.33;;;19.00;99.90;;;;;;5054116;28;20471;-62
2021/09/13 02:06:45;;;;;;;8.73;7.93;;;19.00;99.90;;;;;;5066908;28;20513;-62
2021/09/13 02:09:14;;;;;;;10.27;9.30;;;19.00;99.90;;;;;;5051783;28;20479;-62
2021/09/13 02:11:40;;;;;;;8.77;7.83;;;19.00;99.90;;;;;;5052156;28;20498;-62
2021/09/13 02:14:07;;;;;;;9.77;8.77;;;19.00;99.90;;;;;;5060483;28;20478;-62
2021/09/13 02:16:35;;;;;;;9.63;8.60;;;19.00;99.90;;;;;;5069065;28;20461;-62
2021/09/13 02:19:02;;;;;;;48.10;39.23;;;18.90;99.90;;;;;;5060627;28;20475;-62
2021/09/13 02:21:29;;;;;;;35.13;31.60;;;19.00;99.90;;;;;;5064448;28;20812;-62
2021/09/13 02:23:56;;;;;;;21.07;18.97;;;18.90;99.90;;;;;;5061026;28;20470;-61
2021/09/13 02:26:23;;;;;;;12.43;11.33;;;18.90;99.90;;;;;;5058170;28;20467;-61
2021/09/13 02:28:49;;;;;;;10.23;9.30;;;18.90;99.90;;;;;;5066534;28;20475;-61
2021/09/13 02:31:16;;;;;;;9.27;8.50;;;18.90;99.90;;;;;;5069032;28;20492;-61
2021/09/13 02:33:44;;;;;;;8.73;7.97;;;18.90;99.90;;;;;;5059455;28;20858;-61
2021/09/13 02:36:12;;;;;;;8.37;7.73;;;18.90;99.90;;;;;;5056154;28;20991;-61
2021/09/13 02:38:39;;;;;;;9.87;9.00;;;18.90;99.90;;;;;;5060839;28;20495;-62
2021/09/13 02:41:05;;;;;;;9.20;8.50;;;18.80;99.90;;;;;;5063259;28;20553;-61
2021/09/13 02:43:33;;;;;;;8.77;8.00;;;18.80;99.90;;;;;;5060317;28;20473;-61
2021/09/13 02:46:00;;;;;;;10.47;9.27;;;18.80;99.90;;;;;;5059104;28;20477;-62
2021/09/13 02:48:27;;;;;;;9.43;8.63;;;18.80;99.90;;;;;;5065319;28;20467;-62
2021/09/13 02:50:55;;;;;;;8.60;7.80;;;18.70;99.90;;;;;;5073048;28;20480;-61
2021/09/13 02:53:22;;;;;;;8.83;8.03;;;18.70;99.90;;;;;;5068073;28;20458;-61
2021/09/13 02:55:49;;;;;;;7.70;6.90;;;18.70;99.90;;;;;;5063211;28;20471;-62
2021/09/13 02:58:15;;;;;;;8.77;8.07;;;18.70;99.90;;;;;;5066025;28;20468;-62
2021/09/13 03:00:42;;;;;;;8.67;7.93;;;18.70;99.90;;;;;;5071464;28;20957;-61
2021/09/13 03:03:09;;;;;;;9.33;8.30;;;18.70;99.90;;;;;;5064348;28;20474;-61
2021/09/13 03:05:36;;;;;;;9.23;8.33;;;18.70;99.90;;;;;;5068990;28;20467;-61
2021/09/13 03:08:05;;;;;;;9.60;8.70;;;18.60;99.90;;;;;;5066715;28;20477;-61
2021/09/13 03:10:31;;;;;;;8.77;7.97;;;18.70;99.90;;;;;;5070107;28;20485;-61
2021/09/13 03:12:58;;;;;;;10.00;9.10;;;18.60;99.90;;;;;;5067600;28;20803;-62
2021/09/13 03:15:25;;;;;;;9.70;8.90;;;18.60;99.90;;;;;;5056386;28;20812;-61
2021/09/13 03:17:52;;;;;;;8.03;7.23;;;18.60;99.90;;;;;;5055573;28;20816;-61
2021/09/13 03:20:19;;;;;;;9.83;8.93;;;18.60;99.90;;;;;;5061059;28;20466;-61
2021/09/13 03:22:46;;;;;;;9.47;8.57;;;18.60;99.90;;;;;;5062303;28;20463;-61
2021/09/13 03:25:14;;;;;;;9.20;8.30;;;18.60;99.90;;;;;;5068378;28;20481;-61
2021/09/13 03:27:41;;;;;;;9.07;8.27;;;18.50;99.90;;;;;;5063849;28;20504;-61
2021/09/13 03:30:09;;;;;;;10.30;9.50;;;18.50;99.90;;;;;;5068099;28;20481;-61
2021/09/13 03:32:36;;;;;;;10.87;9.83;;;18.50;99.90;;;;;;5068355;28;20458;-61
2021/09/13 03:35:03;;;;;;;14.77;12.83;;;18.50;99.90;;;;;;5062307;28;20823;-61
2021/09/13 03:37:30;;;;;;;12.33;11.13;;;18.50;99.90;;;;;;5060855;28;20581;-61
2021/09/13 03:39:56;;;;;;;12.90;11.60;;;18.50;99.90;;;;;;5067825;28;20471;-61
2021/09/13 03:42:25;;;;;;;13.00;11.20;;;18.50;99.90;;;;;;5067678;28;20815;-62
2021/09/13 03:44:51;;;;;;;11.37;10.30;;;18.50;99.90;;;;;;5062721;28;20458;-62
2021/09/13 03:47:18;;;;;;;11.83;10.83;;;18.50;99.90;;;;;;5061067;28;20467;-61
2021/09/13 03:49:45;;;;;;;9.77;8.87;;;18.50;99.90;;;;;;5066817;28;20471;-61
2021/09/13 03:52:12;;;;;;;10.30;8.47;;;18.40;99.90;;;;;;5068256;28;20492;-63
2021/09/13 03:54:39;;;;;;;9.50;8.70;;;18.40;99.90;;;;;;5060452;28;21066;-60
2021/09/13 03:57:07;;;;;;;9.30;8.50;;;18.50;99.90;;;;;;5068814;28;20467;-62
2021/09/13 03:59:35;;;;;;;9.57;8.40;;;18.50;99.90;;;;;;5064765;28;20482;-62
2021/09/13 04:02:02;;;;;;;10.50;9.60;;;18.50;99.90;;;;;;5068148;28;20477;-61
2021/09/13 04:04:30;;;;;;;8.77;8.03;;;18.50;99.90;;;;;;5057448;28;20505;-61
2021/09/13 04:06:59;;;;;;;9.10;8.27;;;18.50;99.90;;;;;;5067809;28;20462;-61
2021/09/13 04:09:50;;;;;;;8.10;7.30;;;18.50;99.90;;;;;;5064281;28;20480;-62
2021/09/13 04:12:17;;;;;;;9.30;8.20;;;18.50;99.90;;;;;;5060655;28;20470;-61
2021/09/13 04:14:45;;;;;;;9.13;8.33;;;18.50;99.90;;;;;;5060927;28;20466;-63
2021/09/13 04:17:12;;;;;;;8.57;7.87;;;18.50;99.90;;;;;;5054257;28;20845;-62
2021/09/13 04:19:39;;;;;;;8.17;7.00;;;18.50;99.90;;;;;;5054611;28;20463;-62
2021/09/13 04:22:06;;;;;;;13.40;8.17;;;18.50;99.90;;;;;;5066241;28;20474;-62
2021/09/13 04:24:33;;;;;;;8.00;7.30;;;18.50;99.90;;;;;;5066958;28;20481;-62
2021/09/13 04:27:00;;;;;;;7.90;7.20;;;18.50;99.90;;;;;;5062351;28;20474;-62
2021/09/13 04:29:27;;;;;;;7.00;6.43;;;18.50;99.90;;;;;;5067166;28;20475;-62
2021/09/13 04:31:55;;;;;;;7.23;5.90;;;18.50;99.90;;;;;;5062298;28;20475;-62
2021/09/13 04:34:22;;;;;;;8.10;7.40;;;18.50;99.90;;;;;;5060155;28;20809;-62
2021/09/13 04:36:48;;;;;;;7.20;6.70;;;18.40;99.90;;;;;;5065683;28;20467;-62
2021/09/13 04:39:15;;;;;;;7.80;7.10;;;18.40;99.90;;;;;;5054013;28;20824;-62
2021/09/13 04:41:43;;;;;;;8.07;7.37;;;18.40;99.90;;;;;;5052493;28;20450;-62
2021/09/13 04:44:10;;;;;;;8.53;7.70;;;18.40;99.90;;;;;;5053875;28;20812;-62
2021/09/13 04:46:37;;;;;;;7.23;5.83;;;18.40;99.90;;;;;;5053571;28;20468;-62
2021/09/13 04:49:05;;;;;;;6.80;6.20;;;18.30;99.90;;;;;;5053697;28;20568;-62
2021/09/13 04:51:32;;;;;;;7.70;6.87;;;18.30;99.90;;;;;;5053434;28;20475;-61
2021/09/13 04:54:00;;;;;;;8.10;7.40;;;18.30;99.90;;;;;;5053975;28;20463;-61
2021/09/13 04:56:27;;;;;;;7.30;6.40;;;18.30;99.90;;;;;;5053355;28;20547;-61
2021/09/13 04:58:54;;;;;;;7.33;6.73;;;18.30;99.90;;;;;;5053532;28;20613;-61
2021/09/13 05:01:21;;;;;;;6.50;5.90;;;18.30;99.90;;;;;;5053198;28;20459;-62
2021/09/13 05:03:49;;;;;;;7.03;6.43;;;18.30;99.90;;;;;;5053740;28;20473;-62
2021/09/13 05:06:18;;;;;;;6.90;6.30;;;18.30;99.90;;;;;;5053488;28;20471;-62
2021/09/13 05:08:45;;;;;;;6.20;5.70;;;18.30;99.90;;;;;;5032966;28;21261;-62
2021/09/13 05:11:12;;;;;;;7.87;7.17;;;18.30;99.90;;;;;;5033617;28;20475;-62
2021/09/13 05:13:39;;;;;;;6.83;6.13;;;18.30;99.90;;;;;;5033045;28;20465;-62
2021/09/13 05:16:06;;;;;;;6.10;5.60;;;18.30;99.90;;;;;;5033649;28;20479;-61
2021/09/13 05:18:33;;;;;;;5.63;4.97;;;18.20;99.90;;;;;;5032895;28;20489;-62
2021/09/13 05:21:00;;;;;;;8.23;6.80;;;18.20;99.90;;;;;;5033446;28;20810;-62
2021/09/13 05:23:28;;;;;;;6.30;5.70;;;18.20;99.90;;;;;;5033014;28;20464;-62
2021/09/13 05:25:55;;;;;;;6.30;5.70;;;18.20;99.90;;;;;;5033291;28;20946;-62
2021/09/13 05:28:21;;;;;;;6.40;5.90;;;18.20;99.90;;;;;;5032904;28;20460;-62
2021/09/13 05:30:49;;;;;;;10.40;9.37;;;18.20;99.90;;;;;;5033323;28;20467;-62
2021/09/13 05:33:16;;;;;;;9.30;8.40;;;18.20;99.90;;;;;;5033087;28;20547;-62
2021/09/13 05:35:43;;;;;;;7.83;7.07;;;18.20;99.90;;;;;;5032712;28;20810;-62
2021/09/13 05:38:10;;;;;;;9.17;8.30;;;18.20;99.90;;;;;;5032842;28;20547;-62
2021/09/13 05:40:40;;;;;;;8.40;7.50;;;18.20;99.90;;;;;;5032714;28;20548;-62
2021/09/13 05:43:07;;;;;;;8.03;7.33;;;18.20;99.90;;;;;;5033118;28;20551;-63
2021/09/13 05:45:35;;;;;;;9.80;8.10;;;18.20;99.90;;;;;;5032471;28;20483;-63
2021/09/13 05:48:02;;;;;;;11.60;8.93;;;18.20;99.90;;;;;;5032989;28;20825;-62
2021/09/13 05:50:29;;;;;;;11.07;9.10;;;18.20;99.90;;;;;;5032370;28;20466;-61
2021/09/13 05:52:56;;;;;;;11.00;8.27;;;18.30;99.90;;;;;;5032891;28;20460;-62
2021/09/13 05:55:23;;;;;;;8.93;8.13;;;18.30;99.90;;;;;;5032482;28;20492;-62
2021/09/13 05:57:52;;;;;;;12.93;7.67;;;18.30;99.90;;;;;;5032857;28;20464;-62
2021/09/13 06:00:19;;;;;;;9.13;7.00;;;18.30;99.90;;;;;;5032624;28;20799;-62
2021/09/13 06:02:46;;;;;;;9.63;7.90;;;18.30;99.90;;;;;;5032267;28;20470;-61
2021/09/13 06:05:13;;;;;;;9.20;8.37;;;18.30;99.90;;;;;;5032581;28;20478;-62
2021/09/13 06:07:40;;;;;;;8.90;8.03;;;18.30;99.90;;;;;;5032216;28;20474;-62
2021/09/13 06:10:08;;;;;;;7.70;7.10;;;18.30;99.90;;;;;;5032495;28;20482;-62
2021/09/13 06:12:35;;;;;;;8.13;7.33;;;18.30;99.90;;;;;;5032194;28;20472;-62
2021/09/13 06:15:04;;;;;;;8.70;7.90;;;18.40;99.90;;;;;;5032471;28;20525;-61
2021/09/13 06:17:31;;;;;;;6.70;6.00;;;18.40;99.90;;;;;;5032145;28;20535;-62
2021/09/13 06:19:57;;;;;;;10.47;8.60;;;18.40;99.90;;;;;;5032691;28;20468;-62
2021/09/13 06:22:24;;;;;;;9.33;8.33;;;18.40;99.90;;;;;;5035474;28;20888;-61
2021/09/13 06:24:51;;;;;;;8.87;8.00;;;18.40;99.90;;;;;;5036368;28;20456;-61
2021/09/13 06:27:18;;;;;;;8.47;7.77;;;18.50;99.90;;;;;;5036587;28;20459;-61
2021/09/13 06:29:45;;;;;;;8.17;7.47;;;18.50;99.90;;;;;;5036100;28;20471;-61
2021/09/13 06:32:13;;;;;;;8.73;7.30;;;18.50;99.90;;;;;;5036456;28;20517;-61
2021/09/13 06:34:40;;;;;;;8.07;7.03;;;18.50;99.90;;;;;;5036120;28;20814;-62
2021/09/13 06:37:06;;;;;;;8.53;7.60;;;18.60;99.90;;;;;;5036278;28;20474;-61
2021/09/13 06:39:33;;;;;;;10.23;8.90;;;18.60;99.90;;;;;;5036083;28;20478;-62
2021/09/13 06:42:00;;;;;;;7.27;6.60;;;18.60;99.90;;;;;;5036305;28;20472;-62
2021/09/13 06:44:29;;;;;;;8.20;7.07;;;18.70;99.90;;;;;;5036175;28;20476;-62
2021/09/13 06:47:06;;;;;;;9.60;6.97;;;18.70;99.90;;;;;;5036309;28;21326;-61
2021/09/13 06:49:35;;;;;;;9.03;7.00;;;18.80;99.90;;;;;;5035916;28;20468;-61
2021/09/13 06:52:04;;;;;;;5.60;5.10;;;18.80;99.90;;;;;;5036143;28;20468;-61
2021/09/13 06:54:31;;;;;;;7.13;5.53;;;18.80;99.90;;;;;;5036135;28;20535;-62
2021/09/13 06:56:58;;;;;;;6.23;4.87;;;18.80;99.90;;;;;;5036375;28;21580;-61
2021/09/13 06:59:25;;;;;;;4.07;3.67;;;18.90;99.90;;;;;;5042917;28;20487;-61
2021/09/13 07:01:52;;;;;;;6.10;4.00;;;18.90;99.90;;;;;;5038280;28;20984;-61
2021/09/13 07:04:20;;;;;;;5.40;4.90;;;19.00;99.90;;;;;;5035967;28;20821;-61
2021/09/13 07:06:50;;;;;;;5.87;4.80;;;19.00;99.90;;;;;;5035545;28;20562;-61
2021/09/13 07:09:17;;;;;;;6.63;6.03;;;19.00;99.90;;;;;;5036065;28;20472;-61
2021/09/13 07:11:44;;;;;;;5.13;4.63;;;19.10;99.90;;;;;;5035546;28;20480;-62
2021/09/13 07:14:11;;;;;;;4.37;3.97;;;19.10;99.90;;;;;;5035727;28;20499;-61
2021/09/13 07:16:38;;;;;;;8.70;7.80;;;19.20;99.90;;;;;;5035446;28;20472;-61
2021/09/13 07:19:04;;;;;;;7.13;5.67;;;19.20;99.90;;;;;;5035508;28;20468;-61
2021/09/13 07:21:32;;;;;;;5.80;4.50;;;19.20;99.90;;;;;;5035625;28;20555;-61
2021/09/13 07:24:01;;;;;;;5.10;4.60;;;19.30;99.90;;;;;;5035379;28;20468;-62
2021/09/13 07:26:28;;;;;;;5.90;5.30;;;19.30;99.90;;;;;;5035488;28;20962;-61
2021/09/13 07:28:55;;;;;;;8.33;7.03;;;19.40;99.90;;;;;;5035098;28;20466;-61
2021/09/13 07:31:22;;;;;;;6.27;5.77;;;19.40;99.90;;;;;;5035429;28;20966;-62
2021/09/13 07:33:48;;;;;;;7.40;6.80;;;19.50;99.90;;;;;;5034754;28;20518;-61
2021/09/13 07:36:16;;;;;;;9.70;6.60;;;19.50;99.90;;;;;;5035316;28;20467;-62
2021/09/13 07:38:43;;;;;;;8.40;7.63;;;19.50;99.90;;;;;;5042865;28;20478;-62
2021/09/13 07:41:11;;;;;;;6.67;5.80;;;19.60;99.90;;;;;;5046450;28;20482;-63
2021/09/13 07:43:39;;;;;;;6.27;5.77;;;19.60;99.90;;;;;;5044423;28;21001;-62
2021/09/13 07:46:05;;;;;;;5.47;4.13;;;19.70;99.90;;;;;;5035300;28;20464;-62
2021/09/13 07:48:32;;;;;;;4.80;4.30;;;19.70;99.90;;;;;;5035073;28;20787;-62
2021/09/13 07:50:59;;;;;;;3.70;3.40;;;19.70;99.90;;;;;;5034638;28;20474;-62
2021/09/13 07:53:26;;;;;;;4.00;3.60;;;19.70;99.90;;;;;;5035136;28;20970;-61
2021/09/13 07:55:53;;;;;;;6.90;4.53;;;19.80;99.90;;;;;;5034434;28;20673;-61
2021/09/13 07:58:21;;;;;;;3.90;3.60;;;19.80;99.90;;;;;;5035003;28;20472;-61
2021/09/13 08:00:48;;;;;;;5.17;3.77;;;19.90;99.90;;;;;;5034704;28;20464;-62
2021/09/13 08:03:15;;;;;;;4.97;4.57;;;19.90;99.90;;;;;;5035008;28;20912;-61
2021/09/13 08:05:42;;;;;;;6.00;5.50;;;19.90;99.90;;;;;;5034066;28;20472;-61
2021/09/13 08:08:10;;;;;;;7.23;6.00;;;20.00;99.90;;;;;;5034643;28;20491;-62
2021/09/13 08:10:37;;;;;;;4.83;4.33;;;20.00;99.90;;;;;;5034728;28;20526;-62
2021/09/13 08:13:04;;;;;;;6.57;4.80;;;20.10;99.90;;;;;;5054500;28;20462;-62
2021/09/13 08:15:32;;;;;;;7.40;4.60;;;20.10;99.90;;;;;;5054262;28;20464;-62
2021/09/13 08:17:59;;;;;;;5.70;4.70;;;20.10;99.90;;;;;;5054071;28;20471;-62
2021/09/13 08:20:26;;;;;;;3.63;3.40;;;20.10;99.90;;;;;;5054414;28;20482;-62
2021/09/13 08:22:55;;;;;;;4.80;4.40;;;20.20;99.90;;;;;;5053813;28;20471;-62
2021/09/13 08:25:22;;;;;;;5.67;5.10;;;20.20;99.90;;;;;;5054320;28;20543;-62
2021/09/13 08:27:49;;;;;;;4.03;3.63;;;20.20;99.90;;;;;;5053864;28;20474;-62
2021/09/13 08:30:16;;;;;;;5.10;3.60;;;20.30;99.90;;;;;;5054177;28;20546;-62
2021/09/13 08:32:44;;;;;;;4.37;3.27;;;20.30;99.90;;;;;;5053578;28;20471;-62
2021/09/13 08:35:11;;;;;;;4.23;3.67;;;20.40;99.90;;;;;;5054110;28;20463;-62
2021/09/13 08:37:38;;;;;;;3.87;3.57;;;20.40;99.90;;;;;;5054002;28;20475;-62
2021/09/13 08:40:06;;;;;;;5.07;4.13;;;20.50;99.90;;;;;;5053439;28;20460;-62
2021/09/13 08:42:35;;;;;;;8.33;3.70;;;20.50;99.90;;;;;;5054120;28;20960;-62
2021/09/13 08:45:02;;;;;;;4.57;4.10;;;20.50;99.90;;;;;;5052638;28;20455;-62
2021/09/13 08:47:34;;;;;;;4.17;3.67;;;20.60;99.90;;;;;;5053914;28;20463;-62
2021/09/13 08:50:12;;;;;;;6.70;4.20;;;20.70;99.90;;;;;;5053449;28;20835;-62
2021/09/13 08:52:39;;;;;;;4.47;4.07;;;20.70;99.90;;;;;;5053787;28;20546;-62
2021/09/13 08:55:06;;;;;;;5.73;3.40;;;20.80;99.90;;;;;;5053402;28;20831;-62
2021/09/13 08:57:37;;;;;;;6.33;3.47;;;20.80;99.90;;;;;;5053716;28;20554;-62
2021/09/13 09:00:05;;;;;;;3.67;3.40;;;20.80;99.90;;;;;;5053328;28;20979;-62
2021/09/13 09:02:33;;;;;;;5.63;3.80;;;20.90;99.90;;;;;;5053631;28;20459;-62
2021/09/13 09:05:02;;;;;;;4.07;3.67;;;21.00;99.90;;;;;;5053177;28;20481;-62
2021/09/13 09:07:46;;;;;;;5.50;4.93;;;21.00;99.90;;;;;;5053538;28;20467;-62
2021/09/13 09:10:17;;;;;;;6.47;5.93;;;21.00;99.90;;;;;;5033391;28;21648;-61
2021/09/13 09:13:08;;;;;;;8.40;5.50;;;21.10;99.90;;;;;;5033453;28;20472;-61
2021/09/13 09:15:35;;;;;;;5.47;4.87;;;21.20;99.90;;;;;;5034185;28;20909;-62
2021/09/13 09:18:02;;;;;;;4.97;4.47;;;21.30;99.90;;;;;;5040597;28;20809;-61
2021/09/13 09:20:42;;;;;;;6.40;4.53;;;21.40;99.90;;;;;;5041606;28;20547;-62
2021/09/13 09:23:09;;;;;;;4.50;3.83;;;21.40;99.90;;;;;;5033659;28;20861;-61
2021/09/13 09:25:39;;;;;;;3.77;3.40;;;21.50;99.90;;;;;;5032890;28;21281;-62
2021/09/13 09:28:10;;;;;;;5.00;3.17;;;21.50;99.90;;;;;;5033173;28;20510;-61
2021/09/13 09:30:39;;;;;;;3.97;3.57;;;21.50;99.90;;;;;;5033164;28;20456;-62
2021/09/13 09:33:09;;;;;;;4.90;3.33;;;21.60;99.90;;;;;;5032876;28;20559;-60
2021/09/13 09:35:49;;;;;;;3.53;3.23;;;21.60;99.90;;;;;;5032606;28;20536;-61
2021/09/13 09:38:35;;;;;;;4.37;3.97;;;21.70;99.90;;;;;;5032643;28;20553;-61
2021/09/13 09:41:07;;;;;;;4.10;3.70;;;21.70;99.90;;;;;;5033061;28;20552;-61
2021/09/13 09:43:50;;;;;;;4.20;3.80;;;21.70;99.90;;;;;;5032590;28;20460;-61
2021/09/13 09:46:17;;;;;;;4.90;4.60;;;21.70;99.90;;;;;;5032499;28;20469;-61
2021/09/13 09:48:44;;;;;;;4.30;3.87;;;21.70;99.90;;;;;;5032679;28;20474;-61
2021/09/13 09:51:29;;;;;;;5.90;4.40;;;21.70;99.90;;;;;;5032832;28;20467;-64
2021/09/13 09:53:56;;;;;;;6.13;5.63;;;21.70;99.90;;;;;;5032917;28;20470;-64
2021/09/13 09:56:26;;;;;;;4.53;4.23;;;21.70;99.90;;;;;;5047490;28;20992;-64
2021/09/13 09:59:00;;;;;;;4.73;4.30;;;21.60;99.90;;;;;;5036163;28;20472;-63
2021/09/13 10:01:32;;;;;;;4.53;3.97;;;21.60;99.90;;;;;;5032612;28;20460;-64
2021/09/13 10:04:15;;;;;;;6.03;4.37;;;21.60;99.90;;;;;;5032723;28;20486;-63
2021/09/13 10:06:45;;;;;;;9.33;7.00;;;21.50;99.90;;;;;;5032993;28;20467;-64
2021/09/13 10:09:14;;;;;;;4.13;3.83;;;21.50;99.90;;;;;;5031337;28;20463;-65
2021/09/13 10:11:42;;;;;;;4.40;3.90;;;21.60;99.90;;;;;;5042427;28;20484;-65
2021/09/13 10:14:11;;;;;;;5.27;4.77;;;21.50;99.90;;;;;;5041178;28;20469;-64
2021/09/13 10:16:38;;;;;;;5.20;4.70;;;21.50;99.90;;;;;;5048025;28;20470;-63
2021/09/13 10:19:05;;;;;;;5.00;4.57;;;21.60;99.90;;;;;;5051595;28;20471;-64
2021/09/13 10:21:32;;;;;;;4.93;4.40;;;21.50;99.90;;;;;;5041140;28;20488;-64
2021/09/13 10:24:01;;;;;;;40.27;36.37;;;21.50;99.90;;;;;;5044844;28;20470;-64
2021/09/13 10:26:28;;;;;;;11.63;10.20;;;21.50;99.90;;;;;;5038969;28;20480;-64
2021/09/13 10:29:24;;;;;;;8.77;7.97;;;21.60;99.90;;;;;;5038218;28;20472;-65
2021/09/13 10:32:06;;;;;;;5.97;5.40;;;21.60;99.90;;;;;;5042843;28;20813;-64
2021/09/13 10:34:36;;;;;;;7.57;6.87;;;21.70;99.90;;;;;;5038724;28;20474;-64
2021/09/13 10:37:09;;;;;;;7.20;6.17;;;21.70;99.90;;;;;;5038364;28;20487;-63
2021/09/13 10:39:53;;;;;;;23.73;21.43;;;21.80;99.90;;;;;;5043973;28;20550;-63
2021/09/13 10:42:43;;;;;;;12.30;11.10;;;21.80;99.90;;;;;;5045432;28;20857;-63
2021/09/13 10:45:18;;;;;;;7.23;6.63;;;21.90;99.90;;;;;;5044884;28;20878;-64
2021/09/13 10:47:47;;;;;;;8.43;7.53;;;21.90;99.90;;;;;;5040752;28;20518;-64
2021/09/13 10:50:19;;;;;;;8.80;7.37;;;21.90;99.90;;;;;;5038050;28;20472;-64
2021/09/13 10:52:47;;;;;;;5.83;5.13;;;22.00;99.90;;;;;;5042329;28;20476;-64
2021/09/13 10:55:24;;;;;;;7.43;4.77;;;22.00;99.90;;;;;;5045079;28;20483;-64
2021/09/13 10:58:11;;;;;;;5.03;4.60;;;22.00;99.90;;;;;;5043621;28;20482;-64
2021/09/13 11:00:57;;;;;;;4.93;4.53;;;22.00;99.90;;;;;;5036680;28;20916;-65
2021/09/13 11:03:32;;;;;;;4.70;4.00;;;22.00;99.90;;;;;;5048793;28;20479;-64
2021/09/13 11:06:26;;;;;;;5.10;4.23;;;22.00;99.90;;;;;;5040443;28;20472;-64
2021/09/13 11:08:54;;;;;;;5.93;5.03;;;22.00;99.90;;;;;;5043380;28;20482;-64
2021/09/13 11:11:26;;;;;;;6.20;5.60;;;22.10;99.90;;;;;;5035629;28;20522;-65
2021/09/13 11:13:57;;;;;;;10.27;8.50;;;22.10;99.90;;;;;;5035092;28;20468;-65
2021/09/13 11:16:25;;;;;;;9.40;8.60;;;22.00;99.90;;;;;;5035738;28;20499;-65
2021/09/13 11:18:53;;;;;;;9.70;7.57;;;22.00;99.90;;;;;;5055547;28;20470;-65
2021/09/13 11:21:23;;;;;;;8.83;7.80;;;22.00;99.90;;;;;;5047691;28;20806;-64
2021/09/13 11:23:51;;;;;;;6.30;5.73;;;22.00;99.90;;;;;;5066867;28;20466;-65
2021/09/13 11:26:20;;;;;;;5.50;5.00;;;22.00;99.90;;;;;;5041653;28;20471;-64
2021/09/13 11:28:57;;;;;;;4.53;4.13;;;22.00;99.90;;;;;;5048776;28;20471;-64
2021/09/13 11:31:33;;;;;;;4.07;3.77;;;22.00;99.90;;;;;;5051893;28;20946;-65
2021/09/13 11:34:00;;;;;;;4.10;3.70;;;22.00;99.90;;;;;;5046219;28;20509;-64
2021/09/13 11:36:29;;;;;;;4.60;4.03;;;22.00;99.90;;;;;;5041615;28;20463;-64
2021/09/13 11:38:58;;;;;;;5.70;5.20;;;22.00;99.90;;;;;;5042519;28;20529;-65
2021/09/13 11:41:25;;;;;;;9.50;8.40;;;22.00;99.90;;;;;;5048376;28;20468;-64
2021/09/13 11:44:05;;;;;;;6.17;5.67;;;22.00;99.90;;;;;;5046935;28;20467;-64
2021/09/13 11:46:32;;;;;;;3.60;3.30;;;22.00;99.90;;;;;;5045799;28;20478;-65
2021/09/13 11:49:15;;;;;;;11.30;9.07;;;22.10;99.90;;;;;;5040868;28;20480;-64
2021/09/13 11:52:04;;;;;;;81.10;73.13;;;22.10;99.90;;;;;;5043654;28;20476;-64
2021/09/13 11:54:32;;;;;;;65.57;58.77;;;22.10;99.90;;;;;;5048057;28;20472;-64
2021/09/13 11:56:58;;;;;;;28.50;25.87;;;22.20;99.90;;;;;;5047355;28;20475;-64
2021/09/13 11:59:27;;;;;;;14.83;13.43;;;22.30;99.90;;;;;;5041496;28;20490;-64
2021/09/13 12:01:59;;;;;;;10.73;9.70;;;22.30;99.90;;;;;;5053787;28;21086;-64
2021/09/13 12:04:27;;;;;;;4.10;3.80;;;22.40;99.90;;;;;;5042122;28;20475;-65
2021/09/13 12:07:08;;;;;;;9.00;8.30;;;22.40;99.90;;;;;;5040368;28;20468;-64
2021/09/13 12:09:36;;;;;;;6.93;6.37;;;22.50;99.90;;;;;;5047667;28;20472;-63
2021/09/13 12:12:03;;;;;;;8.27;7.47;;;22.50;99.90;;;;;;5054203;28;20467;-64
2021/09/13 12:14:33;;;;;;;7.77;4.73;;;22.50;99.90;;;;;;5041121;28;20811;-64
2021/09/13 12:17:09;;;;;;;42.67;38.10;;;22.50;99.90;;;;;;5045280;28;20480;-64
2021/09/13 12:19:37;;;;;;;67.27;60.63;;;22.50;99.90;;;;;;5046562;28;20495;-64
2021/09/13 12:22:05;;;;;;;25.60;23.13;;;22.40;99.90;;;;;;5044279;28;20459;-64
2021/09/13 12:24:33;;;;;;;22.73;20.60;;;22.50;99.90;;;;;;5037864;28;20990;-65
2021/09/13 12:27:19;;;;;;;29.87;26.87;;;22.50;99.90;;;;;;5046448;28;20801;-63
2021/09/13 12:30:00;;;;;;;21.17;19.27;;;22.40;99.90;;;;;;5045822;28;20815;-63
2021/09/13 12:32:29;;;;;;;14.80;13.43;;;22.50;99.90;;;;;;5051697;28;20948;-64
2021/09/13 12:35:01;;;;;;;19.10;17.30;;;22.50;99.90;;;;;;5038226;28;20478;-64
2021/09/13 12:37:33;;;;;;;13.10;11.80;;;22.50;99.90;;;;;;5052679;28;20464;-65
2021/09/13 12:40:12;;;;;;;10.97;9.97;;;22.50;99.90;;;;;;5033223;28;20543;-64
2021/09/13 12:42:54;;;;;;;8.93;8.13;;;22.50;99.90;;;;;;5039739;28;20466;-64
2021/09/13 12:45:23;;;;;;;7.03;6.43;;;22.50;99.90;;;;;;5045732;28;20459;-64
2021/09/13 12:47:54;;;;;;;17.60;15.80;;;22.50;99.90;;;;;;5044220;28;20456;-64
2021/09/13 12:50:42;;;;;;;7.50;6.90;;;22.50;99.90;;;;;;5033330;28;20478;-64
2021/09/13 12:53:21;;;;;;;9.07;8.27;;;22.50;99.90;;;;;;5030471;28;20478;-64